createdAt,value
2023-03-29T00:02:04.191Z,3.60
2023-03-29T00:04:31.452Z,3.61
2023-03-29T00:07:04.115Z,3.59
2023-03-29T00:09:33.255Z,3.61
2023-03-29T00:12:01.546Z,3.62
2023-03-29T00:14:31.129Z,3.61
2023-03-29T00:16:58.635Z,3.62
2023-03-29T00:19:25.711Z,3.68
2023-03-29T00:21:52.536Z,3.70
2023-03-29T00:24:21.269Z,3.73
2023-03-29T00:26:48.492Z,3.75
2023-03-29T00:29:15.324Z,3.73
2023-03-29T00:31:42.156Z,3.78
2023-03-29T00:34:09.129Z,3.83
2023-03-29T00:36:35.932Z,3.89
2023-03-29T00:39:02.758Z,3.95
2023-03-29T00:41:29.627Z,3.99
2023-03-29T00:44:01.829Z,4.00
2023-03-29T00:46:30.603Z,4.02
2023-03-29T00:49:05.511Z,4.04
2023-03-29T00:51:36.822Z,4.06
2023-03-29T00:54:07.073Z,4.07
2023-03-29T00:56:38.705Z,4.08
2023-03-29T00:59:10.236Z,4.06
2023-03-29T01:01:55.000Z,4.06
2023-03-29T01:04:37.286Z,4.11
2023-03-29T01:07:18.845Z,4.13
2023-03-29T01:09:50.939Z,4.13
2023-03-29T01:12:24.024Z,4.10
2023-03-29T01:14:56.698Z,4.10
2023-03-29T01:17:25.668Z,4.11
2023-03-29T01:19:59.217Z,4.10
2023-03-29T01:22:39.653Z,4.09
2023-03-29T01:25:15.955Z,4.07
2023-03-29T01:28:13.296Z,4.08
2023-03-29T01:30:46.705Z,4.03
2023-03-29T01:33:23.685Z,4.03
2023-03-29T01:36:35.176Z,4.07
2023-03-29T01:39:07.266Z,4.10
2023-03-29T01:41:59.132Z,4.10
2023-03-29T01:44:44.462Z,4.13
2023-03-29T01:47:38.641Z,4.16
2023-03-29T01:50:08.435Z,4.15
2023-03-29T01:53:00.788Z,4.14
2023-03-29T01:55:34.751Z,4.13
2023-03-29T01:58:05.246Z,4.11
2023-03-29T02:00:34.372Z,4.13
2023-03-29T02:03:05.929Z,4.13
2023-03-29T02:05:35.787Z,4.12
2023-03-29T02:08:05.842Z,4.12
2023-03-29T02:10:35.175Z,4.10
2023-03-29T02:13:02.003Z,4.11
2023-03-29T02:15:28.908Z,4.13
2023-03-29T02:17:56.982Z,4.17
2023-03-29T02:20:32.374Z,4.20
2023-03-29T02:23:08.435Z,4.21
2023-03-29T02:25:38.025Z,4.24
2023-03-29T02:28:06.234Z,4.24
2023-03-29T02:31:04.563Z,4.23
2023-03-29T02:33:52.240Z,4.21
2023-03-29T02:36:22.629Z,4.18
2023-03-29T02:38:49.859Z,4.19
2023-03-29T02:41:18.070Z,4.19
2023-03-29T02:43:47.718Z,4.21
2023-03-29T02:46:16.284Z,4.20
2023-03-29T02:48:46.047Z,4.19
2023-03-29T02:51:20.236Z,4.19
2023-03-29T02:54:00.468Z,4.18
2023-03-29T02:56:27.377Z,4.19
2023-03-29T02:58:54.160Z,4.20
2023-03-29T03:01:21.246Z,4.20
2023-03-29T03:03:48.311Z,4.21
2023-03-29T03:06:15.398Z,4.20
2023-03-29T03:08:42.271Z,4.20
2023-03-29T03:11:09.014Z,4.21
2023-03-29T03:13:35.834Z,4.20
2023-03-29T03:16:03.314Z,4.19
2023-03-29T03:18:30.224Z,4.19
2023-03-29T03:20:59.392Z,4.19
2023-03-29T03:23:26.823Z,4.17
2023-03-29T03:25:53.956Z,4.14
2023-03-29T03:28:22.138Z,4.10
2023-03-29T03:30:49.675Z,4.13
2023-03-29T03:33:17.051Z,4.14
2023-03-29T03:35:46.521Z,4.17
2023-03-29T03:38:13.456Z,4.18
2023-03-29T03:40:40.345Z,4.19
2023-03-29T03:43:07.142Z,4.19
2023-03-29T03:45:34.376Z,4.21
2023-03-29T03:48:01.403Z,4.24
2023-03-29T03:50:28.305Z,4.25
2023-03-29T03:52:55.123Z,4.29
2023-03-29T03:55:22.133Z,4.29
2023-03-29T03:57:48.894Z,4.33
2023-03-29T04:00:23.027Z,4.38
2023-03-29T04:02:50.811Z,4.43
2023-03-29T04:05:17.630Z,4.42
2023-03-29T04:07:44.406Z,4.43
2023-03-29T04:10:11.337Z,4.42
2023-03-29T04:12:39.268Z,4.46
2023-03-29T04:15:06.988Z,4.52
2023-03-29T04:17:33.938Z,4.58
2023-03-29T04:20:02.308Z,4.60
2023-03-29T04:22:30.328Z,4.66
2023-03-29T04:24:57.053Z,4.69
2023-03-29T04:27:23.836Z,4.72
2023-03-29T04:29:50.630Z,4.74
2023-03-29T04:32:17.384Z,4.75
2023-03-29T04:34:44.278Z,4.78
2023-03-29T04:37:11.085Z,4.81
2023-03-29T04:39:38.116Z,4.85
2023-03-29T04:42:05.708Z,4.91
2023-03-29T04:44:35.536Z,4.95
2023-03-29T04:47:02.366Z,4.99
2023-03-29T04:49:29.112Z,5.02
2023-03-29T04:51:56.013Z,5.06
2023-03-29T04:54:23.209Z,5.09
2023-03-29T04:56:52.225Z,5.11
2023-03-29T04:59:18.889Z,5.09
2023-03-29T05:01:46.778Z,5.09
2023-03-29T05:04:14.242Z,5.13
2023-03-29T05:06:42.019Z,5.18
2023-03-29T05:09:09.021Z,5.24
2023-03-29T05:11:36.307Z,5.28
2023-03-29T05:14:03.489Z,5.35
2023-03-29T05:16:30.413Z,5.40
2023-03-29T05:18:58.262Z,5.42
2023-03-29T05:21:26.330Z,5.47
2023-03-29T05:23:53.436Z,5.53
2023-03-29T05:26:23.410Z,5.55
2023-03-29T05:28:51.036Z,5.59
2023-03-29T05:31:18.213Z,5.60
2023-03-29T05:33:45.207Z,5.63
2023-03-29T05:36:13.920Z,5.67
2023-03-29T05:38:42.189Z,5.65
2023-03-29T05:41:09.050Z,5.67
2023-03-29T05:43:35.833Z,5.72
2023-03-29T05:46:02.900Z,5.73
2023-03-29T05:48:29.880Z,5.71
2023-03-29T05:50:57.856Z,5.74
2023-03-29T05:53:26.463Z,5.77
2023-03-29T05:55:54.191Z,5.75
2023-03-29T05:58:21.685Z,5.83
2023-03-29T06:00:49.947Z,5.85
2023-03-29T06:03:21.085Z,5.93
2023-03-29T06:05:55.337Z,5.96
2023-03-29T06:08:22.473Z,5.97
2023-03-29T06:10:50.309Z,5.99
2023-03-29T06:13:17.509Z,6.01
2023-03-29T06:15:45.219Z,5.99
2023-03-29T06:18:12.657Z,6.03
2023-03-29T06:20:39.431Z,6.08
2023-03-29T06:23:06.189Z,6.12
2023-03-29T06:25:32.957Z,6.16
2023-03-29T06:27:59.887Z,6.19
2023-03-29T06:30:29.517Z,6.25
2023-03-29T06:32:58.462Z,6.28
2023-03-29T06:35:25.304Z,6.32
2023-03-29T06:37:53.772Z,6.38
2023-03-29T06:40:25.053Z,6.42
2023-03-29T06:42:57.890Z,6.45
2023-03-29T06:45:29.508Z,6.49
2023-03-29T06:47:56.751Z,6.56
2023-03-29T06:50:24.308Z,6.60
2023-03-29T06:52:51.322Z,6.61
2023-03-29T06:55:18.829Z,6.68
2023-03-29T06:57:45.656Z,6.78
2023-03-29T07:00:18.354Z,6.83
2023-03-29T07:02:49.308Z,6.87
2023-03-29T07:05:16.371Z,6.89
2023-03-29T07:08:00.454Z,6.95
2023-03-29T07:10:32.805Z,6.99
2023-03-29T07:13:03.372Z,6.94
2023-03-29T07:15:30.193Z,6.95
2023-03-29T07:17:57.576Z,6.96
2023-03-29T07:20:27.122Z,6.97
2023-03-29T07:22:54.352Z,6.98
2023-03-29T07:25:22.550Z,7.00
2023-03-29T07:27:49.742Z,7.02
2023-03-29T07:30:23.826Z,7.13
2023-03-29T07:32:52.402Z,7.17
2023-03-29T07:35:19.641Z,7.20
2023-03-29T07:37:46.429Z,7.28
2023-03-29T07:40:19.789Z,7.30
2023-03-29T07:42:47.163Z,7.30
2023-03-29T07:45:16.493Z,7.31
2023-03-29T07:47:44.021Z,7.28
2023-03-29T07:50:11.301Z,7.25
2023-03-29T07:52:38.745Z,7.28
2023-03-29T07:55:07.547Z,7.26
2023-03-29T07:57:35.309Z,7.22
2023-03-29T08:00:15.046Z,7.19
2023-03-29T08:02:52.521Z,7.19
2023-03-29T08:05:37.616Z,7.22
2023-03-29T08:08:07.493Z,7.24
2023-03-29T08:10:37.251Z,7.26
2023-03-29T08:13:07.436Z,7.32
2023-03-29T08:15:35.495Z,7.38
2023-03-29T08:18:02.456Z,7.40
2023-03-29T08:20:29.357Z,7.47
2023-03-29T08:22:56.219Z,7.51
2023-03-29T08:25:23.095Z,7.58
2023-03-29T08:27:49.854Z,7.64
2023-03-29T08:30:16.888Z,7.73
2023-03-29T08:32:43.779Z,7.87
2023-03-29T08:35:10.817Z,7.93
2023-03-29T08:37:37.898Z,8.01
2023-03-29T08:40:06.254Z,8.03
2023-03-29T08:42:51.404Z,8.07
2023-03-29T08:45:30.022Z,8.12
2023-03-29T08:47:56.792Z,8.14
2023-03-29T08:50:35.467Z,8.23
2023-03-29T08:53:14.036Z,8.27
2023-03-29T08:55:43.484Z,8.32
2023-03-29T08:58:19.227Z,8.38
2023-03-29T09:00:51.368Z,8.38
2023-03-29T09:03:32.300Z,8.49
2023-03-29T09:06:07.773Z,8.51
2023-03-29T09:08:54.984Z,8.52
2023-03-29T09:11:24.760Z,8.55
2023-03-29T09:14:03.554Z,8.58
2023-03-29T09:16:38.496Z,8.58
2023-03-29T09:19:33.158Z,8.52
2023-03-29T09:22:17.863Z,8.48
2023-03-29T09:24:54.965Z,8.46
2023-03-29T09:27:32.467Z,8.45
2023-03-29T09:30:21.406Z,8.39
2023-03-29T09:33:03.484Z,8.38
2023-03-29T09:35:41.212Z,8.39
2023-03-29T09:38:13.423Z,8.46
2023-03-29T09:40:45.191Z,8.56
2023-03-29T09:43:18.782Z,8.56
2023-03-29T09:45:53.135Z,8.51
2023-03-29T09:48:20.803Z,8.49
2023-03-29T09:50:51.501Z,8.53
2023-03-29T09:53:20.717Z,8.54
2023-03-29T09:55:50.561Z,8.51
2023-03-29T09:58:22.695Z,8.49
2023-03-29T10:00:50.301Z,8.46
2023-03-29T10:03:22.482Z,8.38
2023-03-29T10:05:53.234Z,8.35
2023-03-29T10:08:29.007Z,8.33
2023-03-29T10:11:00.111Z,8.32
2023-03-29T10:13:33.253Z,8.28
2023-03-29T10:16:03.758Z,8.24
2023-03-29T10:18:33.272Z,8.18
2023-03-29T10:21:03.884Z,8.12
2023-03-29T10:23:36.946Z,8.07
2023-03-29T10:26:07.930Z,8.05
2023-03-29T10:28:36.940Z,8.01
2023-03-29T10:31:06.141Z,7.86
2023-03-29T10:33:36.187Z,7.81
2023-03-29T10:36:06.973Z,7.75
2023-03-29T10:38:37.221Z,7.71
2023-03-29T10:41:15.975Z,7.66
2023-03-29T10:43:49.615Z,7.61
2023-03-29T10:46:21.407Z,7.57
2023-03-29T10:48:51.048Z,7.52
2023-03-29T10:51:19.500Z,7.50
2023-03-29T10:53:46.707Z,7.47
2023-03-29T10:56:42.605Z,7.44
2023-03-29T10:59:29.981Z,7.44
2023-03-29T11:02:28.713Z,7.43
2023-03-29T11:05:27.944Z,7.33
2023-03-29T11:08:09.839Z,7.31
2023-03-29T11:10:39.607Z,7.31
2023-03-29T11:13:24.685Z,7.29
2023-03-29T11:15:59.189Z,7.25
2023-03-29T11:18:48.488Z,7.29
2023-03-29T11:21:42.900Z,7.27
2023-03-29T11:24:18.676Z,7.25
2023-03-29T11:27:00.486Z,7.27
2023-03-29T11:29:58.691Z,7.28
2023-03-29T11:32:37.564Z,7.29
2023-03-29T11:35:07.321Z,7.19
2023-03-29T11:38:01.607Z,7.14
2023-03-29T11:40:40.978Z,7.11
2023-03-29T11:43:15.596Z,7.11
2023-03-29T11:45:52.606Z,7.12
2023-03-29T11:48:29.024Z,7.13
2023-03-29T11:51:14.371Z,7.11
2023-03-29T11:54:03.770Z,7.05
2023-03-29T11:56:34.848Z,7.05
2023-03-29T11:59:10.464Z,7.06
2023-03-29T12:01:43.329Z,7.02
2023-03-29T12:04:32.981Z,6.99
2023-03-29T12:07:14.383Z,6.96
2023-03-29T12:09:51.199Z,6.97
2023-03-29T12:12:38.593Z,6.96
2023-03-29T12:15:11.333Z,6.94
2023-03-29T12:17:45.763Z,6.95
2023-03-29T12:20:23.534Z,6.97
2023-03-29T12:22:51.187Z,6.95
2023-03-29T12:25:26.741Z,6.91
2023-03-29T12:27:56.244Z,6.89
2023-03-29T12:30:31.156Z,6.86
2023-03-29T12:33:24.024Z,6.87
2023-03-29T12:36:12.399Z,6.82
2023-03-29T12:38:41.958Z,6.77
2023-03-29T12:41:28.443Z,6.73
2023-03-29T12:44:02.079Z,6.71
2023-03-29T12:46:33.886Z,6.71
2023-03-29T12:49:09.619Z,6.72
2023-03-29T12:51:39.950Z,6.71
2023-03-29T12:54:17.149Z,6.71
2023-03-29T12:56:55.311Z,6.72
2023-03-29T12:59:38.889Z,6.70
2023-03-29T13:02:15.040Z,6.73
2023-03-29T13:04:57.321Z,6.68
2023-03-29T13:07:24.220Z,6.67
2023-03-29T13:09:56.583Z,6.63
2023-03-29T13:12:31.416Z,6.60
2023-03-29T13:15:21.511Z,6.61
2023-03-29T13:18:20.500Z,6.53
2023-03-29T13:21:19.054Z,6.53
2023-03-29T13:24:03.147Z,6.52
2023-03-29T13:26:47.341Z,6.45
2023-03-29T13:29:42.777Z,6.47
2023-03-29T13:32:43.808Z,6.43
2023-03-29T13:35:23.356Z,6.43
2023-03-29T13:38:33.290Z,6.42
2023-03-29T13:41:01.559Z,6.35
2023-03-29T13:43:42.152Z,6.35
2023-03-29T13:46:23.027Z,6.29
2023-03-29T13:48:59.924Z,6.30
2023-03-29T13:51:59.165Z,6.31
2023-03-29T13:54:28.884Z,6.28
2023-03-29T13:56:55.596Z,6.27
2023-03-29T13:59:38.589Z,6.27
2023-03-29T14:02:07.077Z,6.22
2023-03-29T14:04:46.582Z,6.22
2023-03-29T14:07:15.852Z,6.20
2023-03-29T14:09:48.263Z,6.17
2023-03-29T14:12:16.985Z,6.17
2023-03-29T14:14:58.305Z,6.10
2023-03-29T14:17:25.890Z,6.01
2023-03-29T14:19:57.868Z,5.96
2023-03-29T14:22:29.757Z,5.94
2023-03-29T14:25:02.603Z,5.95
2023-03-29T14:27:32.154Z,5.96
2023-03-29T14:30:00.002Z,5.96
2023-03-29T14:32:32.055Z,5.95
2023-03-29T14:35:00.686Z,5.95
2023-03-29T14:37:29.102Z,5.94
2023-03-29T14:39:56.675Z,5.88
2023-03-29T14:42:28.298Z,5.89
2023-03-29T14:45:04.284Z,5.90
2023-03-29T14:47:33.471Z,5.85
2023-03-29T14:50:01.874Z,5.80
2023-03-29T14:52:31.611Z,5.77
2023-03-29T14:54:59.798Z,5.75
2023-03-29T14:57:29.254Z,5.73
2023-03-29T15:00:01.088Z,5.77
2023-03-29T15:02:33.444Z,5.84
2023-03-29T15:05:05.858Z,5.83
2023-03-29T15:07:35.022Z,5.91
2023-03-29T15:10:05.620Z,5.90
2023-03-29T15:12:34.010Z,5.84
2023-03-29T15:15:02.594Z,5.88
2023-03-29T15:17:50.182Z,5.91
2023-03-29T15:20:29.706Z,5.94
2023-03-29T15:22:59.692Z,5.92
2023-03-29T15:25:37.828Z,5.87
2023-03-29T15:28:05.795Z,5.90
2023-03-29T15:30:36.668Z,5.92
2023-03-29T15:33:15.261Z,5.92
2023-03-29T15:35:44.320Z,5.96
2023-03-29T15:38:12.673Z,5.92
2023-03-29T15:40:39.485Z,5.87
2023-03-29T15:43:06.564Z,5.88
2023-03-29T15:45:34.065Z,5.87
2023-03-29T15:48:04.886Z,5.88
2023-03-29T15:50:32.616Z,5.87
2023-03-29T15:53:08.601Z,5.88
2023-03-29T15:55:41.579Z,5.94
2023-03-29T15:58:10.292Z,5.85
2023-03-29T16:00:40.869Z,5.81
2023-03-29T16:03:13.662Z,5.82
2023-03-29T16:05:41.896Z,5.87
2023-03-29T16:08:10.752Z,5.91
2023-03-29T16:10:37.856Z,5.90
2023-03-29T16:13:05.288Z,5.90
2023-03-29T16:15:33.929Z,5.95
2023-03-29T16:18:01.005Z,5.97
2023-03-29T16:20:27.872Z,5.93
2023-03-29T16:22:55.295Z,5.91
2023-03-29T16:25:24.951Z,5.92
2023-03-29T16:27:52.790Z,5.88
2023-03-29T16:30:20.008Z,5.87
2023-03-29T16:32:46.930Z,5.89
2023-03-29T16:35:27.355Z,5.91
2023-03-29T16:37:54.176Z,5.92
2023-03-29T16:40:21.287Z,5.92
2023-03-29T16:42:48.400Z,5.93
2023-03-29T16:45:16.173Z,5.93
2023-03-29T16:47:46.247Z,5.93
2023-03-29T16:50:19.107Z,5.95
2023-03-29T16:52:48.463Z,5.94
2023-03-29T16:55:19.005Z,6.00
2023-03-29T16:57:47.876Z,5.96
2023-03-29T17:00:17.058Z,5.93
2023-03-29T17:02:44.213Z,5.94
2023-03-29T17:05:12.564Z,5.92
2023-03-29T17:07:40.030Z,5.90
2023-03-29T17:10:08.334Z,5.88
2023-03-29T17:12:36.486Z,5.86
2023-03-29T17:15:05.273Z,5.83
2023-03-29T17:17:32.195Z,5.83
2023-03-29T17:19:59.006Z,5.82
2023-03-29T17:22:26.386Z,5.85
2023-03-29T17:24:53.174Z,5.80
2023-03-29T17:27:20.023Z,5.80
2023-03-29T17:29:47.005Z,5.78
2023-03-29T17:32:13.761Z,5.80
2023-03-29T17:34:40.996Z,5.83
2023-03-29T17:37:07.861Z,5.82
2023-03-29T17:39:37.604Z,5.85
2023-03-29T17:42:05.687Z,5.86
2023-03-29T17:44:33.503Z,5.80
2023-03-29T17:47:01.473Z,5.82
2023-03-29T17:49:28.605Z,5.82
2023-03-29T17:51:55.949Z,5.80
2023-03-29T17:54:22.795Z,5.81
2023-03-29T17:56:50.593Z,5.80
2023-03-29T17:59:17.759Z,5.81
2023-03-29T18:01:44.608Z,5.78
2023-03-29T18:04:11.494Z,5.81
2023-03-29T18:06:38.735Z,5.79
2023-03-29T18:09:05.734Z,5.79
2023-03-29T18:11:32.747Z,5.79
2023-03-29T18:14:00.786Z,5.78
2023-03-29T18:16:27.656Z,5.76
2023-03-29T18:18:54.742Z,5.77
2023-03-29T18:21:26.178Z,5.76
2023-03-29T18:23:55.545Z,5.75
2023-03-29T18:26:23.632Z,5.78
2023-03-29T18:28:51.102Z,5.78
2023-03-29T18:31:20.060Z,5.80
2023-03-29T18:33:47.641Z,5.81
2023-03-29T18:36:14.718Z,5.82
2023-03-29T18:38:43.799Z,5.80
2023-03-29T18:41:12.887Z,5.84
2023-03-29T18:43:41.065Z,5.84
2023-03-29T18:46:08.396Z,5.83
2023-03-29T18:48:39.081Z,5.81
2023-03-29T18:51:07.567Z,5.83
2023-03-29T18:53:39.175Z,5.83
2023-03-29T18:56:06.739Z,5.81
2023-03-29T18:58:34.153Z,5.85
2023-03-29T19:01:03.729Z,5.84
2023-03-29T19:03:31.922Z,5.81
2023-03-29T19:05:58.784Z,5.81
2023-03-29T19:08:26.359Z,5.78
2023-03-29T19:11:00.125Z,5.78
2023-03-29T19:13:27.254Z,5.79
2023-03-29T19:15:54.035Z,5.80
2023-03-29T19:18:21.194Z,5.79
2023-03-29T19:20:51.003Z,5.77
2023-03-29T19:23:18.339Z,5.76
2023-03-29T19:25:55.356Z,5.79
2023-03-29T19:28:22.388Z,5.78
2023-03-29T19:30:49.452Z,5.77
2023-03-29T19:33:17.192Z,5.78
2023-03-29T19:35:44.638Z,5.81
2023-03-29T19:38:11.753Z,5.79
2023-03-29T19:40:38.554Z,5.76
2023-03-29T19:43:05.455Z,5.75
2023-03-29T19:45:32.279Z,5.72
2023-03-29T19:48:02.859Z,5.73
2023-03-29T19:50:31.719Z,5.72
2023-03-29T19:52:58.559Z,5.74
2023-03-29T19:55:26.894Z,5.72
2023-03-29T19:57:53.784Z,5.68
2023-03-29T20:00:24.572Z,5.70
2023-03-29T20:02:52.785Z,5.70
2023-03-29T20:05:20.230Z,5.68
2023-03-29T20:07:47.197Z,5.71
2023-03-29T20:10:14.047Z,5.70
2023-03-29T20:12:41.226Z,5.69
2023-03-29T20:15:08.580Z,5.69
2023-03-29T20:17:35.674Z,5.69
2023-03-29T20:20:06.709Z,5.66
2023-03-29T20:22:33.488Z,5.64
2023-03-29T20:25:00.371Z,5.66
2023-03-29T20:27:29.459Z,5.66
2023-03-29T20:29:56.340Z,5.66
2023-03-29T20:32:23.430Z,5.73
2023-03-29T20:34:50.250Z,5.73
2023-03-29T20:37:16.969Z,5.68
2023-03-29T20:39:43.776Z,5.66
2023-03-29T20:42:11.289Z,5.67
2023-03-29T20:44:39.294Z,5.65
2023-03-29T20:47:08.640Z,5.63
2023-03-29T20:49:39.596Z,5.57
2023-03-29T20:52:17.034Z,5.58
2023-03-29T20:54:45.506Z,5.59
2023-03-29T20:57:14.633Z,5.58
2023-03-29T20:59:42.999Z,5.60
2023-03-29T21:02:16.065Z,5.62
2023-03-29T21:04:44.178Z,5.65
2023-03-29T21:07:11.272Z,5.62
2023-03-29T21:09:38.146Z,5.59
2023-03-29T21:12:04.971Z,5.56
2023-03-29T21:14:33.196Z,5.55
2023-03-29T21:17:00.053Z,5.50
2023-03-29T21:19:27.392Z,5.49
2023-03-29T21:21:54.989Z,5.52
2023-03-29T21:24:22.513Z,5.50
2023-03-29T21:26:49.297Z,5.49
2023-03-29T21:29:16.126Z,5.48
2023-03-29T21:31:43.070Z,5.45
2023-03-29T21:34:09.907Z,5.47
2023-03-29T21:36:36.759Z,5.48
2023-03-29T21:39:04.015Z,5.50
2023-03-29T21:41:30.876Z,5.52
2023-03-29T21:43:57.611Z,5.50
2023-03-29T21:46:25.887Z,5.48
2023-03-29T21:48:52.804Z,5.45
2023-03-29T21:51:19.584Z,5.44
2023-03-29T21:53:46.415Z,5.42
2023-03-29T21:56:13.460Z,5.42
2023-03-29T21:58:40.850Z,5.44
2023-03-29T22:01:10.271Z,5.46
2023-03-29T22:03:38.078Z,5.45
2023-03-29T22:06:09.951Z,5.45
2023-03-29T22:08:41.705Z,5.45
2023-03-29T22:11:16.578Z,5.46
2023-03-29T22:13:44.687Z,5.45
2023-03-29T22:16:14.107Z,5.45
2023-03-29T22:18:44.305Z,5.44
2023-03-29T22:21:25.395Z,5.44
2023-03-29T22:23:56.391Z,5.40
2023-03-29T22:26:27.610Z,5.35
2023-03-29T22:28:55.062Z,5.34
2023-03-29T22:31:23.610Z,5.33
2023-03-29T22:33:50.982Z,5.33
2023-03-29T22:36:21.101Z,5.33
2023-03-29T22:38:49.303Z,5.36
2023-03-29T22:41:17.639Z,5.34
2023-03-29T22:43:45.153Z,5.30
2023-03-29T22:46:13.859Z,5.26
2023-03-29T22:48:41.242Z,5.25
2023-03-29T22:51:08.040Z,5.23
2023-03-29T22:53:34.993Z,5.24
2023-03-29T22:56:01.794Z,5.24
2023-03-29T22:58:29.646Z,5.23
2023-03-29T23:00:57.993Z,5.23
2023-03-29T23:03:24.903Z,5.22
2023-03-29T23:05:57.028Z,5.22
2023-03-29T23:08:24.937Z,5.17
2023-03-29T23:10:52.429Z,5.12
2023-03-29T23:13:33.616Z,5.13
2023-03-29T23:16:02.437Z,5.10
2023-03-29T23:18:31.619Z,5.09
2023-03-29T23:20:59.048Z,5.01
2023-03-29T23:23:27.646Z,4.95
2023-03-29T23:25:58.272Z,4.95
2023-03-29T23:28:27.607Z,4.96
2023-03-29T23:30:55.651Z,4.93
2023-03-29T23:33:22.691Z,4.94
2023-03-29T23:35:49.487Z,4.95
2023-03-29T23:38:16.244Z,4.96
2023-03-29T23:40:43.012Z,4.95
2023-03-29T23:43:11.254Z,4.92
2023-03-29T23:45:38.096Z,4.92
2023-03-29T23:48:05.066Z,4.91
2023-03-29T23:50:31.921Z,4.90
2023-03-29T23:52:58.646Z,4.89
2023-03-29T23:55:25.354Z,4.88
2023-03-29T23:57:52.304Z,4.87
